sensor_id;sensor_type;location;lat;lon;timestamp;temperature;humidity
13686;DHT22;6915;48.296;8.874;2022-11-14T00:00:23;-0.30;99.90
13686;DHT22;6915;48.296;8.874;2022-11-14T00:02:50;-0.40;99.90
13686;DHT22;6915;48.296;8.874;2022-11-14T00:05:17;-0.40;99.90
13686;DHT22;6915;48.296;8.874;2022-11-14T00:07:46;-0.40;99.90
13686;DHT22;6915;48.296;8.874;2022-11-14T00:10:13;-0.40;99.90
13686;DHT22;6915;48.296;8.874;2022-11-14T00:12:40;-0.50;99.90
13686;DHT22;6915;48.296;8.874;2022-11-14T00:15:08;-0.40;99.90
13686;DHT22;6915;48.296;8.874;2022-11-14T00:17:35;-0.50;99.90
13686;DHT22;6915;48.296;8.874;2022-11-14T00:20:04;-0.50;99.90
13686;DHT22;6915;48.296;8.874;2022-11-14T00:22:31;-0.60;99.90
13686;DHT22;6915;48.296;8.874;2022-11-14T00:24:59;-0.50;99.90
13686;DHT22;6915;48.296;8.874;2022-11-14T00:27:26;-0.70;99.90
13686;DHT22;6915;48.296;8.874;2022-11-14T00:29:53;-0.70;99.90
13686;DHT22;6915;48.296;8.874;2022-11-14T00:32:20;-0.60;99.90
13686;DHT22;6915;48.296;8.874;2022-11-14T00:34:48;-0.60;99.90
13686;DHT22;6915;48.296;8.874;2022-11-14T00:37:15;-0.60;99.90
13686;DHT22;6915;48.296;8.874;2022-11-14T00:39:42;-0.60;99.90
13686;DHT22;6915;48.296;8.874;2022-11-14T00:42:10;-0.60;99.90
13686;DHT22;6915;48.296;8.874;2022-11-14T00:44:37;-0.60;99.90
13686;DHT22;6915;48.296;8.874;2022-11-14T00:47:04;-0.60;99.90
13686;DHT22;6915;48.296;8.874;2022-11-14T00:49:31;-0.60;99.90
13686;DHT22;6915;48.296;8.874;2022-11-14T00:51:58;-0.60;99.90
13686;DHT22;6915;48.296;8.874;2022-11-14T00:54:24;-0.50;99.90
13686;DHT22;6915;48.296;8.874;2022-11-14T00:56:52;-0.50;99.90
13686;DHT22;6915;48.296;8.874;2022-11-14T00:59:20;-0.40;99.90
13686;DHT22;6915;48.296;8.874;2022-11-14T01:01:47;0.10;99.90
13686;DHT22;6915;48.296;8.874;2022-11-14T01:04:14;0.00;99.90
13686;DHT22;6915;48.296;8.874;2022-11-14T01:06:41;-0.20;99.90
13686;DHT22;6915;48.296;8.874;2022-11-14T01:09:08;-0.30;99.90
13686;DHT22;6915;48.296;8.874;2022-11-14T01:11:35;-0.30;99.90
13686;DHT22;6915;48.296;8.874;2022-11-14T01:14:05;-0.40;99.90
13686;DHT22;6915;48.296;8.874;2022-11-14T01:16:33;-0.50;99.90
13686;DHT22;6915;48.296;8.874;2022-11-14T01:19:01;-0.50;99.90
13686;DHT22;6915;48.296;8.874;2022-11-14T01:21:28;-0.60;99.90
13686;DHT22;6915;48.296;8.874;2022-11-14T01:23:55;-0.30;99.90
13686;DHT22;6915;48.296;8.874;2022-11-14T01:26:21;-0.50;99.90
13686;DHT22;6915;48.296;8.874;2022-11-14T01:28:48;-0.60;99.90
13686;DHT22;6915;48.296;8.874;2022-11-14T01:31:18;-0.50;99.90
13686;DHT22;6915;48.296;8.874;2022-11-14T01:33:49;-0.70;99.90
13686;DHT22;6915;48.296;8.874;2022-11-14T01:36:16;-0.60;99.90
13686;DHT22;6915;48.296;8.874;2022-11-14T01:38:43;-0.70;99.90
13686;DHT22;6915;48.296;8.874;2022-11-14T01:41:12;-0.70;99.90
13686;DHT22;6915;48.296;8.874;2022-11-14T01:43:40;-0.80;99.90
13686;DHT22;6915;48.296;8.874;2022-11-14T01:46:12;-0.70;99.90
13686;DHT22;6915;48.296;8.874;2022-11-14T01:48:43;-0.80;99.90
13686;DHT22;6915;48.296;8.874;2022-11-14T01:51:17;-0.50;99.90
13686;DHT22;6915;48.296;8.874;2022-11-14T01:53:47;-0.60;99.90
13686;DHT22;6915;48.296;8.874;2022-11-14T01:56:18;-0.60;99.90
13686;DHT22;6915;48.296;8.874;2022-11-14T01:58:49;-0.60;99.90
13686;DHT22;6915;48.296;8.874;2022-11-14T02:01:17;-0.70;99.90
13686;DHT22;6915;48.296;8.874;2022-11-14T02:03:46;-0.60;99.90
13686;DHT22;6915;48.296;8.874;2022-11-14T02:06:19;-0.70;99.90
13686;DHT22;6915;48.296;8.874;2022-11-14T02:08:47;-0.90;99.90
13686;DHT22;6915;48.296;8.874;2022-11-14T02:11:15;-0.90;99.90
13686;DHT22;6915;48.296;8.874;2022-11-14T02:13:42;-0.90;99.90
13686;DHT22;6915;48.296;8.874;2022-11-14T02:16:09;-0.90;99.90
13686;DHT22;6915;48.296;8.874;2022-11-14T02:18:36;-0.90;99.90
13686;DHT22;6915;48.296;8.874;2022-11-14T02:21:05;-0.80;99.90
13686;DHT22;6915;48.296;8.874;2022-11-14T02:23:32;-0.80;99.90
13686;DHT22;6915;48.296;8.874;2022-11-14T02:25:59;-0.90;99.90
13686;DHT22;6915;48.296;8.874;2022-11-14T02:28:26;-0.80;99.90
13686;DHT22;6915;48.296;8.874;2022-11-14T02:30:54;-0.80;99.90
13686;DHT22;6915;48.296;8.874;2022-11-14T02:33:21;-0.80;99.90
13686;DHT22;6915;48.296;8.874;2022-11-14T02:35:48;-0.80;99.90
13686;DHT22;6915;48.296;8.874;2022-11-14T02:38:16;-0.80;99.90
13686;DHT22;6915;48.296;8.874;2022-11-14T02:40:43;-0.70;99.90
13686;DHT22;6915;48.296;8.874;2022-11-14T02:43:10;-0.80;99.90
13686;DHT22;6915;48.296;8.874;2022-11-14T02:45:37;-0.80;99.90
13686;DHT22;6915;48.296;8.874;2022-11-14T02:48:04;-0.80;99.90
13686;DHT22;6915;48.296;8.874;2022-11-14T02:50:32;-0.90;99.90
13686;DHT22;6915;48.296;8.874;2022-11-14T02:52:59;-1.00;99.90
13686;DHT22;6915;48.296;8.874;2022-11-14T02:55:27;-0.90;99.90
13686;DHT22;6915;48.296;8.874;2022-11-14T02:57:54;-1.00;99.90
13686;DHT22;6915;48.296;8.874;2022-11-14T03:00:21;-1.00;99.90
13686;DHT22;6915;48.296;8.874;2022-11-14T03:02:48;-0.90;99.90
13686;DHT22;6915;48.296;8.874;2022-11-14T03:05:15;-1.00;99.90
13686;DHT22;6915;48.296;8.874;2022-11-14T03:07:42;-1.00;99.90
13686;DHT22;6915;48.296;8.874;2022-11-14T03:10:10;-1.00;99.90
13686;DHT22;6915;48.296;8.874;2022-11-14T03:12:39;-1.00;99.90
13686;DHT22;6915;48.296;8.874;2022-11-14T03:15:09;-1.00;99.90
13686;DHT22;6915;48.296;8.874;2022-11-14T03:17:36;-0.90;99.90
13686;DHT22;6915;48.296;8.874;2022-11-14T03:20:04;-0.90;99.90
13686;DHT22;6915;48.296;8.874;2022-11-14T03:22:31;-0.90;99.90
13686;DHT22;6915;48.296;8.874;2022-11-14T03:24:58;-0.90;99.90
13686;DHT22;6915;48.296;8.874;2022-11-14T03:27:25;-1.00;99.90
13686;DHT22;6915;48.296;8.874;2022-11-14T03:29:53;-0.80;99.90
13686;DHT22;6915;48.296;8.874;2022-11-14T03:32:20;-0.70;99.90
13686;DHT22;6915;48.296;8.874;2022-11-14T03:34:47;-0.70;99.90
13686;DHT22;6915;48.296;8.874;2022-11-14T03:37:14;-0.60;99.90
13686;DHT22;6915;48.296;8.874;2022-11-14T03:39:41;-0.60;99.90
13686;DHT22;6915;48.296;8.874;2022-11-14T03:42:07;-0.50;99.90
13686;DHT22;6915;48.296;8.874;2022-11-14T03:44:35;-0.60;99.90
13686;DHT22;6915;48.296;8.874;2022-11-14T03:47:03;-0.50;99.90
13686;DHT22;6915;48.296;8.874;2022-11-14T03:49:30;-0.50;99.90
13686;DHT22;6915;48.296;8.874;2022-11-14T03:51:57;-0.50;99.90
13686;DHT22;6915;48.296;8.874;2022-11-14T03:54:24;-0.40;99.90
13686;DHT22;6915;48.296;8.874;2022-11-14T03:56:51;-0.40;99.90
13686;DHT22;6915;48.296;8.874;2022-11-14T03:59:17;-0.30;99.90
13686;DHT22;6915;48.296;8.874;2022-11-14T04:01:44;-0.30;99.90
13686;DHT22;6915;48.296;8.874;2022-11-14T04:04:13;-0.30;99.90
13686;DHT22;6915;48.296;8.874;2022-11-14T04:06:40;-0.30;99.90
13686;DHT22;6915;48.296;8.874;2022-11-14T04:09:08;-0.20;99.90
13686;DHT22;6915;48.296;8.874;2022-11-14T04:11:35;-0.30;99.90
13686;DHT22;6915;48.296;8.874;2022-11-14T04:14:02;-0.20;99.90
13686;DHT22;6915;48.296;8.874;2022-11-14T04:16:29;-0.10;99.90
13686;DHT22;6915;48.296;8.874;2022-11-14T04:18:56;-0.10;99.90
13686;DHT22;6915;48.296;8.874;2022-11-14T04:21:24;-0.10;99.90
13686;DHT22;6915;48.296;8.874;2022-11-14T04:23:51;0.10;99.90
13686;DHT22;6915;48.296;8.874;2022-11-14T04:26:18;-0.10;99.90
13686;DHT22;6915;48.296;8.874;2022-11-14T04:28:45;0.10;99.90
13686;DHT22;6915;48.296;8.874;2022-11-14T04:31:12;0.00;99.90
13686;DHT22;6915;48.296;8.874;2022-11-14T04:33:38;0.00;99.90
13686;DHT22;6915;48.296;8.874;2022-11-14T04:36:06;0.00;99.90
13686;DHT22;6915;48.296;8.874;2022-11-14T04:38:34;0.00;99.90
13686;DHT22;6915;48.296;8.874;2022-11-14T04:41:04;0.00;99.90
13686;DHT22;6915;48.296;8.874;2022-11-14T04:43:31;0.00;99.90
13686;DHT22;6915;48.296;8.874;2022-11-14T04:45:57;0.10;99.90
13686;DHT22;6915;48.296;8.874;2022-11-14T04:48:24;0.10;99.90
13686;DHT22;6915;48.296;8.874;2022-11-14T04:50:51;-0.10;99.90
13686;DHT22;6915;48.296;8.874;2022-11-14T04:53:18;0.00;99.90
13686;DHT22;6915;48.296;8.874;2022-11-14T04:55:46;0.20;99.90
13686;DHT22;6915;48.296;8.874;2022-11-14T04:58:13;0.00;99.90
13686;DHT22;6915;48.296;8.874;2022-11-14T05:00:40;0.10;99.90
13686;DHT22;6915;48.296;8.874;2022-11-14T05:03:07;0.00;99.90
13686;DHT22;6915;48.296;8.874;2022-11-14T05:05:34;0.00;99.90
13686;DHT22;6915;48.296;8.874;2022-11-14T05:08:01;0.00;99.90
13686;DHT22;6915;48.296;8.874;2022-11-14T05:10:28;0.00;99.90
13686;DHT22;6915;48.296;8.874;2022-11-14T05:12:57;-0.10;99.90
13686;DHT22;6915;48.296;8.874;2022-11-14T05:15:24;0.00;99.90
13686;DHT22;6915;48.296;8.874;2022-11-14T05:17:51;-0.10;99.90
13686;DHT22;6915;48.296;8.874;2022-11-14T05:20:18;-0.10;99.90
13686;DHT22;6915;48.296;8.874;2022-11-14T05:22:45;-0.10;99.90
13686;DHT22;6915;48.296;8.874;2022-11-14T05:25:11;-0.10;99.90
13686;DHT22;6915;48.296;8.874;2022-11-14T05:27:38;-0.10;99.90
13686;DHT22;6915;48.296;8.874;2022-11-14T05:30:08;-0.10;99.90
13686;DHT22;6915;48.296;8.874;2022-11-14T05:32:35;0.00;99.90
13686;DHT22;6915;48.296;8.874;2022-11-14T05:35:03;0.00;99.90
13686;DHT22;6915;48.296;8.874;2022-11-14T05:37:33;0.00;99.90
13686;DHT22;6915;48.296;8.874;2022-11-14T05:40:01;0.10;99.90
13686;DHT22;6915;48.296;8.874;2022-11-14T05:42:27;0.20;99.90
13686;DHT22;6915;48.296;8.874;2022-11-14T05:44:54;0.20;99.90
13686;DHT22;6915;48.296;8.874;2022-11-14T05:47:23;0.30;99.90
13686;DHT22;6915;48.296;8.874;2022-11-14T05:49:50;0.60;99.90
13686;DHT22;6915;48.296;8.874;2022-11-14T05:52:17;0.60;99.90
13686;DHT22;6915;48.296;8.874;2022-11-14T05:54:44;1.40;99.90
13686;DHT22;6915;48.296;8.874;2022-11-14T05:57:11;2.50;99.90
13686;DHT22;6915;48.296;8.874;2022-11-14T05:59:37;3.20;99.90
13686;DHT22;6915;48.296;8.874;2022-11-14T06:02:04;3.60;99.90
13686;DHT22;6915;48.296;8.874;2022-11-14T06:04:33;4.00;99.90
13686;DHT22;6915;48.296;8.874;2022-11-14T06:07:00;4.20;99.90
13686;DHT22;6915;48.296;8.874;2022-11-14T06:09:27;4.20;99.90
13686;DHT22;6915;48.296;8.874;2022-11-14T06:11:54;4.30;99.90
13686;DHT22;6915;48.296;8.874;2022-11-14T06:14:21;4.40;99.90
13686;DHT22;6915;48.296;8.874;2022-11-14T06:16:48;4.40;99.90
13686;DHT22;6915;48.296;8.874;2022-11-14T06:19:15;4.80;99.90
13686;DHT22;6915;48.296;8.874;2022-11-14T06:21:43;4.90;99.90
13686;DHT22;6915;48.296;8.874;2022-11-14T06:24:10;5.10;99.90
13686;DHT22;6915;48.296;8.874;2022-11-14T06:26:37;5.20;99.90
13686;DHT22;6915;48.296;8.874;2022-11-14T06:29:04;5.30;99.90
13686;DHT22;6915;48.296;8.874;2022-11-14T06:31:32;5.50;99.90
13686;DHT22;6915;48.296;8.874;2022-11-14T06:33:59;5.60;99.90
13686;DHT22;6915;48.296;8.874;2022-11-14T06:36:26;5.70;99.90
13686;DHT22;6915;48.296;8.874;2022-11-14T06:38:54;6.00;99.90
13686;DHT22;6915;48.296;8.874;2022-11-14T06:41:22;6.30;99.90
13686;DHT22;6915;48.296;8.874;2022-11-14T06:43:50;6.70;99.90
13686;DHT22;6915;48.296;8.874;2022-11-14T06:46:19;7.00;99.90
13686;DHT22;6915;48.296;8.874;2022-11-14T06:48:46;7.20;99.90
13686;DHT22;6915;48.296;8.874;2022-11-14T06:51:15;7.50;99.90
13686;DHT22;6915;48.296;8.874;2022-11-14T06:53:42;7.60;99.90
13686;DHT22;6915;48.296;8.874;2022-11-14T06:56:12;7.60;99.90
13686;DHT22;6915;48.296;8.874;2022-11-14T06:58:41;7.70;99.90
13686;DHT22;6915;48.296;8.874;2022-11-14T07:01:11;7.80;99.90
13686;DHT22;6915;48.296;8.874;2022-11-14T07:03:38;7.90;99.90
13686;DHT22;6915;48.296;8.874;2022-11-14T07:06:08;8.00;99.90
13686;DHT22;6915;48.296;8.874;2022-11-14T07:08:36;8.10;99.90
13686;DHT22;6915;48.296;8.874;2022-11-14T07:11:04;8.10;99.90
13686;DHT22;6915;48.296;8.874;2022-11-14T07:13:34;8.20;99.90
13686;DHT22;6915;48.296;8.874;2022-11-14T07:16:01;8.30;99.90
13686;DHT22;6915;48.296;8.874;2022-11-14T07:18:30;8.30;99.90
13686;DHT22;6915;48.296;8.874;2022-11-14T07:20:58;8.20;99.90
13686;DHT22;6915;48.296;8.874;2022-11-14T07:23:25;8.40;99.90
13686;DHT22;6915;48.296;8.874;2022-11-14T07:25:53;8.30;99.90
13686;DHT22;6915;48.296;8.874;2022-11-14T07:28:20;8.30;99.90
13686;DHT22;6915;48.296;8.874;2022-11-14T07:30:49;8.30;99.90
13686;DHT22;6915;48.296;8.874;2022-11-14T07:33:16;8.20;99.90
13686;DHT22;6915;48.296;8.874;2022-11-14T07:35:43;8.10;99.90
13686;DHT22;6915;48.296;8.874;2022-11-14T07:38:10;8.20;99.90
13686;DHT22;6915;48.296;8.874;2022-11-14T07:40:37;8.10;99.90
13686;DHT22;6915;48.296;8.874;2022-11-14T07:43:04;8.10;99.90
13686;DHT22;6915;48.296;8.874;2022-11-14T07:45:32;8.10;99.90
13686;DHT22;6915;48.296;8.874;2022-11-14T07:48:01;8.10;99.90
13686;DHT22;6915;48.296;8.874;2022-11-14T07:50:28;8.10;99.90
13686;DHT22;6915;48.296;8.874;2022-11-14T07:52:56;8.10;99.90
13686;DHT22;6915;48.296;8.874;2022-11-14T07:55:23;8.00;99.90
13686;DHT22;6915;48.296;8.874;2022-11-14T07:57:52;8.00;99.90
13686;DHT22;6915;48.296;8.874;2022-11-14T08:00:19;8.00;99.90
13686;DHT22;6915;48.296;8.874;2022-11-14T08:02:47;7.90;99.90
13686;DHT22;6915;48.296;8.874;2022-11-14T08:05:15;7.90;99.90
13686;DHT22;6915;48.296;8.874;2022-11-14T08:07:43;7.90;99.90
13686;DHT22;6915;48.296;8.874;2022-11-14T08:10:10;7.80;99.90
13686;DHT22;6915;48.296;8.874;2022-11-14T08:12:39;7.80;99.90
13686;DHT22;6915;48.296;8.874;2022-11-14T08:15:07;7.80;99.90
13686;DHT22;6915;48.296;8.874;2022-11-14T08:17:35;7.80;99.90
13686;DHT22;6915;48.296;8.874;2022-11-14T08:20:02;7.90;99.90
13686;DHT22;6915;48.296;8.874;2022-11-14T08:22:30;7.90;99.90
13686;DHT22;6915;48.296;8.874;2022-11-14T08:24:57;7.90;99.90
13686;DHT22;6915;48.296;8.874;2022-11-14T08:27:24;7.90;99.90
13686;DHT22;6915;48.296;8.874;2022-11-14T08:29:51;7.90;99.90
13686;DHT22;6915;48.296;8.874;2022-11-14T08:32:18;7.90;99.90
13686;DHT22;6915;48.296;8.874;2022-11-14T08:34:45;8.00;99.90
13686;DHT22;6915;48.296;8.874;2022-11-14T08:37:13;8.10;99.90
13686;DHT22;6915;48.296;8.874;2022-11-14T08:39:41;8.10;99.90
13686;DHT22;6915;48.296;8.874;2022-11-14T08:42:08;8.10;99.90
13686;DHT22;6915;48.296;8.874;2022-11-14T08:44:35;8.00;99.90
13686;DHT22;6915;48.296;8.874;2022-11-14T08:47:02;8.20;99.90
13686;DHT22;6915;48.296;8.874;2022-11-14T08:49:29;8.30;99.90
13686;DHT22;6915;48.296;8.874;2022-11-14T08:51:56;8.30;99.90
13686;DHT22;6915;48.296;8.874;2022-11-14T08:54:23;8.40;99.90
13686;DHT22;6915;48.296;8.874;2022-11-14T08:56:51;8.40;99.90
13686;DHT22;6915;48.296;8.874;2022-11-14T08:59:19;8.50;99.90
13686;DHT22;6915;48.296;8.874;2022-11-14T09:01:46;8.60;99.90
13686;DHT22;6915;48.296;8.874;2022-11-14T09:04:14;8.70;99.90
13686;DHT22;6915;48.296;8.874;2022-11-14T09:06:42;8.80;99.90
13686;DHT22;6915;48.296;8.874;2022-11-14T09:09:10;8.90;99.90
13686;DHT22;6915;48.296;8.874;2022-11-14T09:11:38;9.00;99.90
13686;DHT22;6915;48.296;8.874;2022-11-14T09:14:08;9.00;99.90
13686;DHT22;6915;48.296;8.874;2022-11-14T09:16:35;9.00;99.90
13686;DHT22;6915;48.296;8.874;2022-11-14T09:19:02;9.00;99.90
13686;DHT22;6915;48.296;8.874;2022-11-14T09:21:29;9.10;99.90
13686;DHT22;6915;48.296;8.874;2022-11-14T09:23:56;9.10;99.90
13686;DHT22;6915;48.296;8.874;2022-11-14T09:26:24;9.20;99.90
13686;DHT22;6915;48.296;8.874;2022-11-14T09:28:51;9.20;99.90
13686;DHT22;6915;48.296;8.874;2022-11-14T09:31:20;9.20;99.90
13686;DHT22;6915;48.296;8.874;2022-11-14T09:33:48;9.20;99.90
13686;DHT22;6915;48.296;8.874;2022-11-14T09:36:16;9.20;99.90
13686;DHT22;6915;48.296;8.874;2022-11-14T09:38:44;9.10;99.90
13686;DHT22;6915;48.296;8.874;2022-11-14T09:41:22;9.10;99.90
13686;DHT22;6915;48.296;8.874;2022-11-14T09:44:06;9.10;99.90
13686;DHT22;6915;48.296;8.874;2022-11-14T09:46:40;9.10;99.90
13686;DHT22;6915;48.296;8.874;2022-11-14T09:49:16;9.20;99.90
13686;DHT22;6915;48.296;8.874;2022-11-14T09:51:49;9.20;99.90
13686;DHT22;6915;48.296;8.874;2022-11-14T09:54:21;9.20;99.90
13686;DHT22;6915;48.296;8.874;2022-11-14T09:56:50;9.20;99.90
13686;DHT22;6915;48.296;8.874;2022-11-14T09:59:18;9.20;99.90
13686;DHT22;6915;48.296;8.874;2022-11-14T10:01:53;9.30;99.90
13686;DHT22;6915;48.296;8.874;2022-11-14T10:04:27;9.20;99.90
13686;DHT22;6915;48.296;8.874;2022-11-14T10:07:03;9.20;99.90
13686;DHT22;6915;48.296;8.874;2022-11-14T10:09:51;9.20;99.90
13686;DHT22;6915;48.296;8.874;2022-11-14T10:12:24;9.20;99.90
13686;DHT22;6915;48.296;8.874;2022-11-14T10:18:08;9.30;99.90
13686;DHT22;6915;48.296;8.874;2022-11-14T10:20:43;9.20;99.90
13686;DHT22;6915;48.296;8.874;2022-11-14T10:23:22;9.20;99.90
13686;DHT22;6915;48.296;8.874;2022-11-14T10:26:05;9.10;99.90
13686;DHT22;6915;48.296;8.874;2022-11-14T10:28:48;9.10;99.90
13686;DHT22;6915;48.296;8.874;2022-11-14T10:31:26;9.10;99.90
13686;DHT22;6915;48.296;8.874;2022-11-14T10:34:02;9.10;99.90
13686;DHT22;6915;48.296;8.874;2022-11-14T10:36:47;9.10;99.90
13686;DHT22;6915;48.296;8.874;2022-11-14T10:39:20;9.10;99.90
13686;DHT22;6915;48.296;8.874;2022-11-14T10:41:51;9.10;99.90
13686;DHT22;6915;48.296;8.874;2022-11-14T10:44:23;9.10;99.90
13686;DHT22;6915;48.296;8.874;2022-11-14T10:46:55;9.20;99.90
13686;DHT22;6915;48.296;8.874;2022-11-14T10:49:31;9.20;99.90
13686;DHT22;6915;48.296;8.874;2022-11-14T10:52:03;9.10;99.90
13686;DHT22;6915;48.296;8.874;2022-11-14T10:54:35;9.10;99.90
13686;DHT22;6915;48.296;8.874;2022-11-14T10:57:13;9.40;99.90
13686;DHT22;6915;48.296;8.874;2022-11-14T10:59:41;9.20;99.90
13686;DHT22;6915;48.296;8.874;2022-11-14T11:02:09;9.30;99.90
13686;DHT22;6915;48.296;8.874;2022-11-14T11:04:38;9.30;99.90
13686;DHT22;6915;48.296;8.874;2022-11-14T11:07:23;9.30;99.90
13686;DHT22;6915;48.296;8.874;2022-11-14T11:10:19;9.30;99.90
13686;DHT22;6915;48.296;8.874;2022-11-14T11:13:04;9.30;99.90
13686;DHT22;6915;48.296;8.874;2022-11-14T11:15:37;9.50;99.90
13686;DHT22;6915;48.296;8.874;2022-11-14T11:18:23;9.30;99.90
13686;DHT22;6915;48.296;8.874;2022-11-14T11:21:06;9.40;99.90
13686;DHT22;6915;48.296;8.874;2022-11-14T11:23:34;9.40;99.90
13686;DHT22;6915;48.296;8.874;2022-11-14T11:26:04;9.50;99.90
13686;DHT22;6915;48.296;8.874;2022-11-14T11:28:34;9.60;99.90
13686;DHT22;6915;48.296;8.874;2022-11-14T11:31:04;9.70;99.90
13686;DHT22;6915;48.296;8.874;2022-11-14T11:33:32;9.80;99.90
13686;DHT22;6915;48.296;8.874;2022-11-14T11:36:04;10.00;99.90
13686;DHT22;6915;48.296;8.874;2022-11-14T11:38:32;10.10;99.90
13686;DHT22;6915;48.296;8.874;2022-11-14T11:41:05;10.40;99.90
13686;DHT22;6915;48.296;8.874;2022-11-14T11:43:40;10.50;99.90
13686;DHT22;6915;48.296;8.874;2022-11-14T11:46:14;10.70;99.90
13686;DHT22;6915;48.296;8.874;2022-11-14T11:48:45;10.80;99.90
13686;DHT22;6915;48.296;8.874;2022-11-14T11:51:16;10.80;99.90
13686;DHT22;6915;48.296;8.874;2022-11-14T11:53:49;10.80;99.90
13686;DHT22;6915;48.296;8.874;2022-11-14T11:56:21;10.90;99.90
13686;DHT22;6915;48.296;8.874;2022-11-14T11:58:52;11.00;99.90
13686;DHT22;6915;48.296;8.874;2022-11-14T12:01:21;11.10;99.90
13686;DHT22;6915;48.296;8.874;2022-11-14T12:03:51;11.10;99.90
13686;DHT22;6915;48.296;8.874;2022-11-14T12:06:21;11.30;99.90
13686;DHT22;6915;48.296;8.874;2022-11-14T12:09:06;11.40;99.90
13686;DHT22;6915;48.296;8.874;2022-11-14T12:11:41;11.40;99.90
13686;DHT22;6915;48.296;8.874;2022-11-14T12:14:27;11.60;99.90
13686;DHT22;6915;48.296;8.874;2022-11-14T12:17:24;11.60;99.90
13686;DHT22;6915;48.296;8.874;2022-11-14T12:20:08;11.70;99.90
13686;DHT22;6915;48.296;8.874;2022-11-14T12:23:02;11.90;99.90
13686;DHT22;6915;48.296;8.874;2022-11-14T12:25:53;12.30;99.90
13686;DHT22;6915;48.296;8.874;2022-11-14T12:28:55;12.50;99.90
13686;DHT22;6915;48.296;8.874;2022-11-14T12:31:26;12.60;99.90
13686;DHT22;6915;48.296;8.874;2022-11-14T12:33:57;12.60;99.90
13686;DHT22;6915;48.296;8.874;2022-11-14T12:36:28;12.70;99.90
13686;DHT22;6915;48.296;8.874;2022-11-14T12:38:58;12.70;99.90
13686;DHT22;6915;48.296;8.874;2022-11-14T12:41:28;12.70;99.90
13686;DHT22;6915;48.296;8.874;2022-11-14T12:44:21;12.70;99.90
13686;DHT22;6915;48.296;8.874;2022-11-14T12:47:15;12.80;99.90
13686;DHT22;6915;48.296;8.874;2022-11-14T12:50:03;12.70;99.90
13686;DHT22;6915;48.296;8.874;2022-11-14T12:52:46;12.70;99.90
13686;DHT22;6915;48.296;8.874;2022-11-14T12:55:53;12.80;99.90
13686;DHT22;6915;48.296;8.874;2022-11-14T12:58:30;13.00;99.90
13686;DHT22;6915;48.296;8.874;2022-11-14T13:01:13;13.00;99.90
13686;DHT22;6915;48.296;8.874;2022-11-14T13:03:56;13.10;99.90
13686;DHT22;6915;48.296;8.874;2022-11-14T13:06:37;13.10;99.90
13686;DHT22;6915;48.296;8.874;2022-11-14T13:09:30;13.00;99.90
13686;DHT22;6915;48.296;8.874;2022-11-14T13:12:22;12.90;99.90
13686;DHT22;6915;48.296;8.874;2022-11-14T13:15:29;13.00;99.90
13686;DHT22;6915;48.296;8.874;2022-11-14T13:18:18;12.90;99.90
13686;DHT22;6915;48.296;8.874;2022-11-14T13:21:05;12.90;99.90
13686;DHT22;6915;48.296;8.874;2022-11-14T13:23:56;12.80;99.90
13686;DHT22;6915;48.296;8.874;2022-11-14T13:26:54;12.60;99.90
13686;DHT22;6915;48.296;8.874;2022-11-14T13:29:52;12.60;99.90
13686;DHT22;6915;48.296;8.874;2022-11-14T13:35:54;12.50;99.90
13686;DHT22;6915;48.296;8.874;2022-11-14T13:48:13;12.00;99.90
13686;DHT22;6915;48.296;8.874;2022-11-14T13:50:48;11.90;99.90
13686;DHT22;6915;48.296;8.874;2022-11-14T13:53:19;11.80;99.90
13686;DHT22;6915;48.296;8.874;2022-11-14T13:55:55;11.70;99.90
13686;DHT22;6915;48.296;8.874;2022-11-14T13:58:59;11.70;99.90
13686;DHT22;6915;48.296;8.874;2022-11-14T14:01:47;11.50;99.90
13686;DHT22;6915;48.296;8.874;2022-11-14T14:04:35;11.50;99.90
13686;DHT22;6915;48.296;8.874;2022-11-14T14:07:11;11.40;99.90
13686;DHT22;6915;48.296;8.874;2022-11-14T14:09:45;11.30;99.90
13686;DHT22;6915;48.296;8.874;2022-11-14T14:12:29;11.20;99.90
13686;DHT22;6915;48.296;8.874;2022-11-14T14:15:13;11.20;99.90
13686;DHT22;6915;48.296;8.874;2022-11-14T14:17:49;11.10;99.90
13686;DHT22;6915;48.296;8.874;2022-11-14T14:20:30;11.20;99.90
13686;DHT22;6915;48.296;8.874;2022-11-14T14:23:09;11.10;99.90
13686;DHT22;6915;48.296;8.874;2022-11-14T14:25:47;11.10;99.90
13686;DHT22;6915;48.296;8.874;2022-11-14T14:28:24;11.00;99.90
13686;DHT22;6915;48.296;8.874;2022-11-14T14:31:02;11.10;99.90
13686;DHT22;6915;48.296;8.874;2022-11-14T14:33:39;11.00;99.90
13686;DHT22;6915;48.296;8.874;2022-11-14T14:36:20;10.90;99.90
13686;DHT22;6915;48.296;8.874;2022-11-14T14:38:47;10.80;99.90
13686;DHT22;6915;48.296;8.874;2022-11-14T14:41:18;10.80;99.90
13686;DHT22;6915;48.296;8.874;2022-11-14T14:43:53;10.60;99.90
13686;DHT22;6915;48.296;8.874;2022-11-14T14:46:28;10.80;99.90
13686;DHT22;6915;48.296;8.874;2022-11-14T14:48:56;10.70;99.90
13686;DHT22;6915;48.296;8.874;2022-11-14T14:51:34;10.60;99.90
13686;DHT22;6915;48.296;8.874;2022-11-14T14:54:02;10.60;99.90
13686;DHT22;6915;48.296;8.874;2022-11-14T14:56:32;10.50;99.90
13686;DHT22;6915;48.296;8.874;2022-11-14T14:59:14;10.40;99.90
13686;DHT22;6915;48.296;8.874;2022-11-14T15:01:43;10.40;99.90
13686;DHT22;6915;48.296;8.874;2022-11-14T15:04:13;10.40;99.90
13686;DHT22;6915;48.296;8.874;2022-11-14T15:06:44;10.40;99.90
13686;DHT22;6915;48.296;8.874;2022-11-14T15:09:16;10.40;99.90
13686;DHT22;6915;48.296;8.874;2022-11-14T15:11:46;10.40;99.90
13686;DHT22;6915;48.296;8.874;2022-11-14T15:14:16;10.40;99.90
13686;DHT22;6915;48.296;8.874;2022-11-14T15:16:46;10.50;99.90
13686;DHT22;6915;48.296;8.874;2022-11-14T15:19:17;10.50;99.90
13686;DHT22;6915;48.296;8.874;2022-11-14T15:22:00;10.50;99.90
13686;DHT22;6915;48.296;8.874;2022-11-14T15:24:28;10.50;99.90
13686;DHT22;6915;48.296;8.874;2022-11-14T15:26:55;10.50;99.90
13686;DHT22;6915;48.296;8.874;2022-11-14T15:29:25;10.50;99.90
13686;DHT22;6915;48.296;8.874;2022-11-14T15:31:54;10.50;99.90
13686;DHT22;6915;48.296;8.874;2022-11-14T15:34:24;10.60;99.90
13686;DHT22;6915;48.296;8.874;2022-11-14T15:37:20;10.50;99.90
13686;DHT22;6915;48.296;8.874;2022-11-14T15:39:48;10.50;99.90
13686;DHT22;6915;48.296;8.874;2022-11-14T15:42:18;10.40;99.90
13686;DHT22;6915;48.296;8.874;2022-11-14T15:44:46;10.30;99.90
13686;DHT22;6915;48.296;8.874;2022-11-14T15:47:19;10.30;99.90
13686;DHT22;6915;48.296;8.874;2022-11-14T15:49:57;10.30;99.90
13686;DHT22;6915;48.296;8.874;2022-11-14T15:52:30;10.30;99.90
13686;DHT22;6915;48.296;8.874;2022-11-14T15:54:57;10.40;99.90
13686;DHT22;6915;48.296;8.874;2022-11-14T15:57:24;10.40;99.90
13686;DHT22;6915;48.296;8.874;2022-11-14T15:59:51;10.30;99.90
13686;DHT22;6915;48.296;8.874;2022-11-14T16:02:20;10.20;99.90
13686;DHT22;6915;48.296;8.874;2022-11-14T16:04:50;10.00;99.90
13686;DHT22;6915;48.296;8.874;2022-11-14T16:07:17;10.00;99.90
13686;DHT22;6915;48.296;8.874;2022-11-14T16:09:46;9.90;99.90
13686;DHT22;6915;48.296;8.874;2022-11-14T16:12:13;9.80;99.90
13686;DHT22;6915;48.296;8.874;2022-11-14T16:14:41;10.00;99.90
13686;DHT22;6915;48.296;8.874;2022-11-14T16:17:12;9.90;99.90
13686;DHT22;6915;48.296;8.874;2022-11-14T16:19:39;9.90;99.90
13686;DHT22;6915;48.296;8.874;2022-11-14T16:22:09;9.80;99.90
13686;DHT22;6915;48.296;8.874;2022-11-14T16:24:37;10.00;99.90
13686;DHT22;6915;48.296;8.874;2022-11-14T16:27:05;10.10;99.90
13686;DHT22;6915;48.296;8.874;2022-11-14T16:29:32;10.20;99.90
13686;DHT22;6915;48.296;8.874;2022-11-14T16:31:59;10.20;99.90